MSC Annamaria — H3HN — position and weather

sailwx.info

Track history (hours):
 
Tides and Currents Weather Stations Pressure Air Temp Water Temp Dewpoint Dewpoint Depression Visibility Wind Speed Wind Dir Waves Ship Positions

MSC Annamaria

Last reported at 2015-Mar-28 02:20 UTC. Time now 2015-Mar-30 23:05 UTC.
Position N 33°10' E 031°45'.

Length 188 m; draft 8.2 m.

Type: Ship (hazmat cat B). MMSI: 353852000.

Date/timePositionNaut miles runAvg speedWind from/ knotsBaromVisibWave heightAir tempDewpointWater temp
2015-Mar-28 02:20N 33°10' E 031°45'2312.5
2015-Mar-28 00:29N 33°28' E 032°02'1112.4
2015-Mar-27 23:33N 33°37' E 032°11'1212.2
2015-Mar-27 22:33N 33°46' E 032°20'1212.3
2015-Mar-27 21:33N 33°56' E 032°29'1312.9
2015-Mar-27 20:33N 34°06' E 032°40'1313.1
2015-Mar-27 19:33N 34°16' E 032°50'1313.1
2015-Mar-27 18:33N 34°26' E 032°60'1211.8
2015-Mar-27 17:33N 34°37' E 033°04'3 2.8
2015-Mar-27 16:33N 34°39' E 033°01'0 0.0
2015-Mar-27 15:32N 34°39' E 033°01'0 0.0
2015-Mar-27 14:31N 34°39' E 033°01'0 0.0
2015-Mar-27 13:27N 34°39' E 033°01'0 0.0
2015-Mar-27 12:32N 34°39' E 033°01'0 0.0
2015-Mar-27 11:32N 34°39' E 033°01'0 0.0
2015-Mar-27 10:31N 34°39' E 033°01'0 0.0
2015-Mar-27 09:27N 34°39' E 033°01'0 0.0
2015-Mar-27 08:33N 34°39' E 033°01'0 0.0
2015-Mar-27 07:31N 34°39' E 033°01'0 0.0
2015-Mar-27 06:32N 34°39' E 033°01'0 0.0
2015-Mar-27 05:26N 34°39' E 033°01'1 1.5
2015-Mar-27 04:33N 34°39' E 033°02'2 1.9
2015-Mar-27 03:33N 34°40' E 033°04'0 0.1
2015-Mar-27 02:31N 34°40' E 033°04'0 0.0
2015-Mar-27 01:31N 34°40' E 033°04'0 0.0
2015-Mar-27 00:32N 34°40' E 033°04'0 0.0
2015-Mar-26 23:31N 34°40' E 033°04'0 0.0
2015-Mar-26 22:31N 34°40' E 033°04'0 0.0
2015-Mar-26 21:29N 34°40' E 033°04'0 0.0
2015-Mar-26 20:31N 34°40' E 033°04'0 0.0
2015-Mar-26 19:28N 34°40' E 033°04'0 0.1
2015-Mar-26 18:33N 34°40' E 033°04'8 8.1
2015-Mar-26 17:33N 34°32' E 033°04'1211.8
2015-Mar-26 16:33N 34°33' E 032°50'1212.4
2015-Mar-26 15:33N 34°36' E 032°35'33112.1
2015-Mar-25 12:15N 36°09' E 026°05'912.3
2015-Mar-25 11:33N 36°08' E 025°55'1511.8
2015-Mar-25 10:14N 36°09' E 025°35'911.7
2015-Mar-25 09:28N 36°09' E 025°24'1011.3
2015-Mar-25 08:33N 36°09' E 025°12'1211.7
2015-Mar-25 07:33N 36°15' E 024°59'9811.7
2015-Mar-24 23:12N 37°34' E 023°45'812.8
2015-Mar-24 22:33N 37°41' E 023°41'1312.7
2015-Mar-24 21:33N 37°53' E 023°37'4 3.8
2015-Mar-24 20:33N 37°57' E 023°36'0 0.0
2015-Mar-24 19:29N 37°57' E 023°36'0 0.0
2015-Mar-24 18:14N 37°57' E 023°36'0 0.1
2015-Mar-24 17:32N 37°57' E 023°36'0 0.0
2015-Mar-24 16:32N 37°57' E 023°36'0 0.0
2015-Mar-24 15:27N 37°57' E 023°36'0 0.0
2015-Mar-24 14:23N 37°57' E 023°36'0 0.0
2015-Mar-24 13:33N 37°57' E 023°36'0 0.0
2015-Mar-24 12:31N 37°57' E 023°36'0 0.0
2015-Mar-24 11:19N 37°57' E 023°36'0 0.0
2015-Mar-24 10:33N 37°57' E 023°36'0 0.0
2015-Mar-24 09:33N 37°57' E 023°36'0 0.0
2015-Mar-24 08:30N 37°57' E 023°36'0 0.0
2015-Mar-24 07:26N 37°57' E 023°36'0 0.0
2015-Mar-24 06:25N 37°57' E 023°36'0 0.0
2015-Mar-24 05:23N 37°57' E 023°36'0 0.0
2015-Mar-24 04:17N 37°57' E 023°36'0 0.0
2015-Mar-24 03:25N 37°57' E 023°36'0 0.0
2015-Mar-24 02:31N 37°57' E 023°36'0 0.0
2015-Mar-24 01:29N 37°57' E 023°36'0 0.0
2015-Mar-24 00:33N 37°57' E 023°36'0 0.0
2015-Mar-23 23:32N 37°57' E 023°36'0 0.0
2015-Mar-23 22:33N 37°57' E 023°36'0 0.0
2015-Mar-23 21:27N 37°57' E 023°36'0 0.0
2015-Mar-23 20:12N 37°57' E 023°36'0 0.0
2015-Mar-23 19:28N 37°57' E 023°36'0 0.0
2015-Mar-23 18:24N 37°57' E 023°36'0 0.0
2015-Mar-23 17:25N 37°57' E 023°36'0 0.0
2015-Mar-23 16:33N 37°57' E 023°36'0 0.0
2015-Mar-23 15:17N 37°57' E 023°36'0 0.0
2015-Mar-23 14:33N 37°57' E 023°36'2 2.4
2015-Mar-23 13:33N 37°55' E 023°36'3 2.8
2015-Mar-23 12:33N 37°52' E 023°36'4 3.8
2015-Mar-23 11:33N 37°50' E 023°40'1313.2
2015-Mar-23 10:33N 37°39' E 023°49'  
Track history (hours):
 
Tides and Currents Weather Stations Pressure Air Temp Water Temp Dewpoint Dewpoint Depression Visibility Wind Speed Wind Dir Waves Ship Positions

MSC Annamaria

Last reported at 2015-Mar-28 02:20 UTC. Time now 2015-Mar-30 23:05 UTC.
Position N 33°10' E 031°45'.

Length 188 m; draft 8.2 m.

Type: Ship (hazmat cat B). MMSI: 353852000.

Date/timePositionNaut miles runAvg speedWind from/ knotsBaromVisibWave heightAir tempDewpointWater temp
2015-Mar-28 02:20N 33°10' E 031°45'2312.5
2015-Mar-28 00:29N 33°28' E 032°02'1112.4
2015-Mar-27 23:33N 33°37' E 032°11'1212.2
2015-Mar-27 22:33N 33°46' E 032°20'1212.3
2015-Mar-27 21:33N 33°56' E 032°29'1312.9
2015-Mar-27 20:33N 34°06' E 032°40'1313.1
2015-Mar-27 19:33N 34°16' E 032°50'1313.1
2015-Mar-27 18:33N 34°26' E 032°60'1211.8
2015-Mar-27 17:33N 34°37' E 033°04'3 2.8
2015-Mar-27 16:33N 34°39' E 033°01'0 0.0
2015-Mar-27 15:32N 34°39' E 033°01'0 0.0
2015-Mar-27 14:31N 34°39' E 033°01'0 0.0
2015-Mar-27 13:27N 34°39' E 033°01'0 0.0
2015-Mar-27 12:32N 34°39' E 033°01'0 0.0
2015-Mar-27 11:32N 34°39' E 033°01'0 0.0
2015-Mar-27 10:31N 34°39' E 033°01'0 0.0
2015-Mar-27 09:27N 34°39' E 033°01'0 0.0
2015-Mar-27 08:33N 34°39' E 033°01'0 0.0
2015-Mar-27 07:31N 34°39' E 033°01'0 0.0
2015-Mar-27 06:32N 34°39' E 033°01'0 0.0
2015-Mar-27 05:26N 34°39' E 033°01'1 1.5
2015-Mar-27 04:33N 34°39' E 033°02'2 1.9
2015-Mar-27 03:33N 34°40' E 033°04'0 0.1
2015-Mar-27 02:31N 34°40' E 033°04'0 0.0
2015-Mar-27 01:31N 34°40' E 033°04'0 0.0
2015-Mar-27 00:32N 34°40' E 033°04'0 0.0
2015-Mar-26 23:31N 34°40' E 033°04'0 0.0
2015-Mar-26 22:31N 34°40' E 033°04'0 0.0
2015-Mar-26 21:29N 34°40' E 033°04'0 0.0
2015-Mar-26 20:31N 34°40' E 033°04'0 0.0
2015-Mar-26 19:28N 34°40' E 033°04'0 0.1
2015-Mar-26 18:33N 34°40' E 033°04'8 8.1
2015-Mar-26 17:33N 34°32' E 033°04'1211.8
2015-Mar-26 16:33N 34°33' E 032°50'1212.4
2015-Mar-26 15:33N 34°36' E 032°35'33112.1
2015-Mar-25 12:15N 36°09' E 026°05'912.3
2015-Mar-25 11:33N 36°08' E 025°55'1511.8
2015-Mar-25 10:14N 36°09' E 025°35'911.7
2015-Mar-25 09:28N 36°09' E 025°24'1011.3
2015-Mar-25 08:33N 36°09' E 025°12'1211.7
2015-Mar-25 07:33N 36°15' E 024°59'9811.7
2015-Mar-24 23:12N 37°34' E 023°45'812.8
2015-Mar-24 22:33N 37°41' E 023°41'1312.7
2015-Mar-24 21:33N 37°53' E 023°37'4 3.8
2015-Mar-24 20:33N 37°57' E 023°36'0 0.0
2015-Mar-24 19:29N 37°57' E 023°36'0 0.0
2015-Mar-24 18:14N 37°57' E 023°36'0 0.1
2015-Mar-24 17:32N 37°57' E 023°36'0 0.0
2015-Mar-24 16:32N 37°57' E 023°36'0 0.0
2015-Mar-24 15:27N 37°57' E 023°36'0 0.0
2015-Mar-24 14:23N 37°57' E 023°36'0 0.0
2015-Mar-24 13:33N 37°57' E 023°36'0 0.0
2015-Mar-24 12:31N 37°57' E 023°36'0 0.0
2015-Mar-24 11:19N 37°57' E 023°36'0 0.0
2015-Mar-24 10:33N 37°57' E 023°36'0 0.0
2015-Mar-24 09:33N 37°57' E 023°36'0 0.0
2015-Mar-24 08:30N 37°57' E 023°36'0 0.0
2015-Mar-24 07:26N 37°57' E 023°36'0 0.0
2015-Mar-24 06:25N 37°57' E 023°36'0 0.0
2015-Mar-24 05:23N 37°57' E 023°36'0 0.0
2015-Mar-24 04:17N 37°57' E 023°36'0 0.0
2015-Mar-24 03:25N 37°57' E 023°36'0 0.0
2015-Mar-24 02:31N 37°57' E 023°36'0 0.0
2015-Mar-24 01:29N 37°57' E 023°36'0 0.0
2015-Mar-24 00:33N 37°57' E 023°36'0 0.0
2015-Mar-23 23:32N 37°57' E 023°36'0 0.0
2015-Mar-23 22:33N 37°57' E 023°36'0 0.0
2015-Mar-23 21:27N 37°57' E 023°36'0 0.0
2015-Mar-23 20:12N 37°57' E 023°36'0 0.0
2015-Mar-23 19:28N 37°57' E 023°36'0 0.0
2015-Mar-23 18:24N 37°57' E 023°36'0 0.0
2015-Mar-23 17:25N 37°57' E 023°36'0 0.0
2015-Mar-23 16:33N 37°57' E 023°36'0 0.0
2015-Mar-23 15:17N 37°57' E 023°36'0 0.0
2015-Mar-23 14:33N 37°57' E 023°36'2 2.4
2015-Mar-23 13:33N 37°55' E 023°36'3 2.8
2015-Mar-23 12:33N 37°52' E 023°36'4 3.8
2015-Mar-23 11:33N 37°50' E 023°40'1313.2
2015-Mar-23 10:33N 37°39' E 023°49'  

Dump ship's entire track history